首页
METAR-TAF:

METAR-TAF

机场 :

奧克蘭機場

奧克蘭都會區, 新西兰

纬度: 37-01S, 经度: 174-48E, 海拔: 7米

当前天气观测

该预报发布于34分钟前的10:30 UTC
风速2节,风向东转东南
温度 9°C
湿度 93%
气压 1022 hPa
能见度10公里或以上

METAR: NZAA 211030Z AUTO 11002KT 9999 NCD 09/08 Q1022

时间: 23:04 (11:04 UTC)

预报

该预报发布于3小时和4分钟前的08:00 UTC
预报有效从21日的 09点(UTC)到 22日的 12点(UTC)
风速5节,风向东转东南
能见度10公里或以上
散云层高于4000英尺
成为
从 21日的 21点(UTC)到 21日的 23点(UTC)
风速12节,风向东北
短暂存在
从 22日的 08点(UTC)到 22日的 12点(UTC)
能見度: 7000
多云层高于1400英尺
雨,

TAF: NZAA 210800Z 2109/2212 12005KT 9999 SCT040 BECMG 2121/2123 04012KT TEMPO 2208/2212 7000 RA BKN014

超过4000个机场的气象观测和天气预报(METAR&TAF报告)。

可查询的气象台以黄色和红色小点在地图上表示。

将鼠标移到小点上方,可查看气象台名称。

然后点击查看天气观测和预报。

如需切换地图:点击带黑十字的绿色按钮放大地图;点击带横线的绿色按钮缩小地图;或者点击绿色箭头查看邻近地区的地图。


METAR-TAF: